Time,TemperatureF,DewpointF,PressureIn,WindDirection,WindDirectionDegrees,WindSpeedMPH,WindSpeedGustMPH,Humidity,HourlyPrecipIn,Conditions,Clouds,dailyrainin,SolarRadiationWatts/m^2,SoftwareType,DateUTC
2013-04-10 00:03:00,59.0,46.0,-100.00,NE,45,0.0,3.0,62,0.00,,,0.00,0.000000,,2013-04-10 04:03:00,
2013-04-10 00:13:00,59.0,46.0,-100.00,NE,45,0.0,3.0,62,0.00,,,0.00,0.000000,,2013-04-10 04:13:00,
2013-04-10 00:33:00,56.0,46.0,-100.00,ENE,77,0.0,3.0,70,0.00,,,0.00,0.000000,,2013-04-10 04:33:00,
2013-04-10 00:43:00,56.0,46.0,-100.00,ENE,77,0.0,3.0,70,0.00,,,0.00,0.000000,,2013-04-10 04:43:00,
2013-04-10 00:53:00,56.0,46.0,-100.00,ENE,77,0.0,3.0,70,0.00,,,0.00,0.000000,,2013-04-10 04:53:00,
2013-04-10 01:03:00,56.0,46.0,-100.00,ENE,77,0.0,3.0,70,0.00,,,0.00,0.000000,,2013-04-10 05:03:00,
2013-04-10 01:13:00,56.0,46.0,-100.00,ENE,77,0.0,3.0,70,0.00,,,0.00,0.000000,,2013-04-10 05:13:00,
2013-04-10 01:33:00,54.0,46.0,-100.00,West,266,0.0,3.0,75,0.00,,,0.00,0.000000,,2013-04-10 05:33:00,
2013-04-10 01:43:00,54.0,46.0,-100.00,West,266,0.0,3.0,75,0.00,,,0.00,0.000000,,2013-04-10 05:43:00,
2013-04-10 01:53:00,54.0,46.0,-100.00,West,266,0.0,3.0,75,0.00,,,0.00,0.000000,,2013-04-10 05:53:00,
2013-04-10 02:03:00,54.0,46.0,-100.00,West,266,0.0,3.0,75,0.00,,,0.00,0.000000,,2013-04-10 06:03:00,
2013-04-10 02:12:00,54.0,46.0,-100.00,West,266,0.0,3.0,75,0.00,,,0.00,0.000000,,2013-04-10 06:12:00,
2013-04-10 02:43:00,54.0,47.0,-100.00,East,100,0.0,2.0,78,0.00,,,0.00,0.000000,,2013-04-10 06:43:00,
2013-04-10 02:52:00,54.0,47.0,-100.00,East,100,0.0,2.0,78,0.00,,,0.00,0.000000,,2013-04-10 06:52:00,
2013-04-10 03:02:00,54.0,47.0,-100.00,East,100,0.0,2.0,78,0.00,,,0.00,0.000000,,2013-04-10 07:02:00,
2013-04-10 03:12:00,54.0,47.0,-100.00,East,100,0.0,2.0,78,0.00,,,0.00,0.000000,,2013-04-10 07:12:00,
2013-04-10 03:43:00,53.0,47.0,-100.00,East,100,1.0,2.0,79,0.00,,,0.00,0.000000,,2013-04-10 07:43:00,
2013-04-10 03:52:00,53.0,47.0,-100.00,East,100,1.0,2.0,79,0.00,,,0.00,0.000000,,2013-04-10 07:52:00,
2013-04-10 04:02:00,53.0,47.0,-100.00,East,100,1.0,2.0,79,0.00,,,0.00,0.000000,,2013-04-10 08:02:00,
2013-04-10 04:12:00,53.0,47.0,-100.00,East,100,1.0,2.0,79,0.00,,,0.00,0.000000,,2013-04-10 08:12:00,
2013-04-10 04:43:00,52.0,47.0,-100.00,East,97,1.0,3.0,82,0.00,,,0.00,0.000000,,2013-04-10 08:43:00,
2013-04-10 04:52:00,52.0,47.0,-100.00,East,97,1.0,3.0,82,0.00,,,0.00,0.000000,,2013-04-10 08:52:00,
2013-04-10 05:02:00,52.0,47.0,-100.00,East,97,1.0,3.0,82,0.00,,,0.00,0.000000,,2013-04-10 09:02:00,
2013-04-10 05:12:00,52.0,47.0,-100.00,East,97,1.0,3.0,82,0.00,,,0.00,0.000000,,2013-04-10 09:12:00,
2013-04-10 05:43:00,52.0,47.0,-100.00,East,92,0.0,1.0,83,0.00,,,0.00,0.000000,,2013-04-10 09:43:00,
2013-04-10 05:53:00,52.0,47.0,-100.00,East,92,0.0,1.0,83,0.00,,,0.00,0.000000,,2013-04-10 09:53:00,
2013-04-10 06:03:00,52.0,47.0,-100.00,East,92,0.0,1.0,83,0.00,,,0.00,0.000000,,2013-04-10 10:03:00,
2013-04-10 06:13:00,52.0,47.0,-100.00,East,92,0.0,1.0,83,0.00,,,0.00,0.000000,,2013-04-10 10:13:00,
2013-04-10 06:33:00,52.0,47.0,-100.00,South,178,0.0,3.0,82,0.00,,,0.00,0.000000,,2013-04-10 10:33:00,
2013-04-10 06:43:00,52.0,47.0,-100.00,South,178,0.0,3.0,82,0.00,,,0.00,0.000000,,2013-04-10 10:43:00,
2013-04-10 06:53:00,52.0,47.0,-100.00,South,178,0.0,3.0,82,0.00,,,0.00,0.000000,,2013-04-10 10:53:00,
2013-04-10 07:03:00,52.0,47.0,-100.00,South,178,0.0,3.0,82,0.00,,,0.00,0.000000,,2013-04-10 11:03:00,
2013-04-10 07:12:00,52.0,47.0,-100.00,South,178,0.0,3.0,82,0.00,,,0.00,0.000000,,2013-04-10 11:12:00,
2013-04-10 09:43:00,73.0,53.0,-100.00,WSW,258,5.0,8.0,50,-99.99,,,0.00,233.000000,,2013-04-10 13:43:00,
2013-04-10 09:53:00,73.0,53.0,-100.00,WSW,258,5.0,8.0,50,-99.99,,,0.00,233.000000,,2013-04-10 13:53:00,
2013-04-10 10:02:00,73.0,53.0,-100.00,WSW,258,5.0,8.0,50,-99.99,,,0.00,233.000000,,2013-04-10 14:02:00,
2013-04-10 10:12:00,73.0,53.0,-100.00,WSW,258,5.0,8.0,50,-99.99,,,0.00,233.000000,,2013-04-10 14:12:00,
2013-04-10 10:33:00,77.0,51.0,-100.00,WSW,255,11.0,17.0,41,0.00,,,0.00,438.000000,,2013-04-10 14:33:00,
2013-04-10 10:42:00,77.0,51.0,-100.00,WSW,255,11.0,17.0,41,0.00,,,0.00,438.000000,,2013-04-10 14:42:00,
2013-04-10 10:52:00,77.0,51.0,-100.00,WSW,255,11.0,17.0,41,0.00,,,0.00,438.000000,,2013-04-10 14:52:00,
2013-04-10 11:03:00,77.0,51.0,-100.00,WSW,255,11.0,17.0,41,0.00,,,0.00,438.000000,,2013-04-10 15:03:00,
2013-04-10 11:12:00,77.0,51.0,-100.00,WSW,255,11.0,17.0,41,0.00,,,0.00,438.000000,,2013-04-10 15:12:00,
2013-04-10 12:33:00,81.0,56.0,-100.00,West,263,8.0,19.0,42,-99.99,,,0.00,497.000000,,2013-04-10 16:33:00,
2013-04-10 12:43:00,81.0,56.0,-100.00,West,263,8.0,19.0,42,-99.99,,,0.00,497.000000,,2013-04-10 16:43:00,
2013-04-10 12:53:00,81.0,56.0,-100.00,West,263,8.0,19.0,42,-99.99,,,0.00,497.000000,,2013-04-10 16:53:00,
2013-04-10 13:03:00,81.0,56.0,-100.00,West,263,8.0,19.0,42,-99.99,,,0.00,497.000000,,2013-04-10 17:03:00,
2013-04-10 13:13:00,81.0,56.0,-100.00,West,263,8.0,19.0,42,-99.99,,,0.00,497.000000,,2013-04-10 17:13:00,
2013-04-10 13:34:00,83.0,54.0,-100.00,WSW,257,10.0,19.0,37,0.00,,,0.00,682.000000,,2013-04-10 17:34:00,
2013-04-10 13:43:00,83.0,54.0,-100.00,WSW,257,10.0,19.0,37,0.00,,,0.00,682.000000,,2013-04-10 17:43:00,
2013-04-10 13:53:00,83.0,54.0,-100.00,WSW,257,10.0,19.0,37,0.00,,,0.00,682.000000,,2013-04-10 17:53:00,
2013-04-10 14:03:00,83.0,54.0,-100.00,WSW,257,10.0,19.0,37,0.00,,,0.00,682.000000,,2013-04-10 18:03:00,
2013-04-10 14:12:00,83.0,54.0,-100.00,WSW,257,10.0,19.0,37,0.00,,,0.00,682.000000,,2013-04-10 18:12:00,
2013-04-10 14:43:00,82.0,51.0,-100.00,West,266,9.0,18.0,34,0.00,,,0.00,630.000000,,2013-04-10 18:43:00,
2013-04-10 14:53:00,82.0,51.0,-100.00,West,266,9.0,18.0,34,0.00,,,0.00,630.000000,,2013-04-10 18:53:00,
2013-04-10 15:03:00,82.0,51.0,-100.00,West,266,9.0,18.0,34,0.00,,,0.00,630.000000,,2013-04-10 19:03:00,
2013-04-10 15:13:00,82.0,51.0,-100.00,West,266,9.0,18.0,34,0.00,,,0.00,630.000000,,2013-04-10 19:13:00,
2013-04-10 15:42:00,85.0,52.0,-100.00,WSW,253,8.0,19.0,32,0.00,,,0.00,580.000000,,2013-04-10 19:42:00,
2013-04-10 15:53:00,85.0,52.0,-100.00,WSW,253,8.0,19.0,32,0.00,,,0.00,580.000000,,2013-04-10 19:53:00,
2013-04-10 16:03:00,85.0,52.0,-100.00,WSW,253,8.0,19.0,32,0.00,,,0.00,580.000000,,2013-04-10 20:03:00,
2013-04-10 16:12:00,85.0,52.0,-100.00,WSW,253,8.0,19.0,32,0.00,,,0.00,580.000000,,2013-04-10 20:12:00,
2013-04-10 16:43:00,86.0,52.0,-100.00,West,266,8.0,17.0,31,0.00,,,0.00,478.000000,,2013-04-10 20:43:00,
2013-04-10 16:53:00,86.0,52.0,-100.00,West,266,8.0,17.0,31,0.00,,,0.00,478.000000,,2013-04-10 20:53:00,
2013-04-10 17:03:00,86.0,52.0,-100.00,West,266,8.0,17.0,31,0.00,,,0.00,478.000000,,2013-04-10 21:03:00,
2013-04-10 17:13:00,86.0,52.0,-100.00,West,266,8.0,17.0,31,0.00,,,0.00,478.000000,,2013-04-10 21:13:00,
2013-04-10 17:43:00,84.0,48.0,-100.00,West,262,10.0,18.0,29,0.00,,,0.00,400.000000,,2013-04-10 21:43:00,
2013-04-10 17:53:00,84.0,48.0,-100.00,West,262,10.0,18.0,29,0.00,,,0.00,400.000000,,2013-04-10 21:53:00,
2013-04-10 18:03:00,84.0,48.0,-100.00,West,262,10.0,18.0,29,0.00,,,0.00,400.000000,,2013-04-10 22:03:00,
2013-04-10 18:13:00,84.0,48.0,-100.00,West,262,10.0,18.0,29,0.00,,,0.00,400.000000,,2013-04-10 22:13:00,
2013-04-10 18:43:00,85.0,49.0,-100.00,WSW,255,8.0,15.0,29,0.00,,,0.00,282.000000,,2013-04-10 22:43:00,
2013-04-10 18:53:00,85.0,49.0,-100.00,WSW,255,8.0,15.0,29,0.00,,,0.00,282.000000,,2013-04-10 22:53:00,
2013-04-10 19:03:00,85.0,49.0,-100.00,WSW,255,8.0,15.0,29,0.00,,,0.00,282.000000,,2013-04-10 23:03:00,
2013-04-10 19:12:00,85.0,49.0,-100.00,WSW,255,8.0,15.0,29,0.00,,,0.00,282.000000,,2013-04-10 23:12:00,
2013-04-10 19:33:00,83.0,48.0,-100.00,West,276,6.0,14.0,30,0.00,,,0.00,115.000000,,2013-04-10 23:33:00,
2013-04-10 19:43:00,83.0,48.0,-100.00,West,276,6.0,14.0,30,0.00,,,0.00,115.000000,,2013-04-10 23:43:00,
2013-04-10 19:53:00,83.0,48.0,-100.00,West,276,6.0,14.0,30,0.00,,,0.00,115.000000,,2013-04-10 23:53:00,
2013-04-10 20:02:00,83.0,48.0,-100.00,West,276,6.0,14.0,30,0.00,,,0.00,115.000000,,2013-04-11 00:02:00,
2013-04-10 20:13:00,83.0,48.0,-100.00,West,276,6.0,14.0,30,0.00,,,0.00,115.000000,,2013-04-11 00:13:00,
2013-04-10 20:43:00,81.0,47.0,-100.00,West,265,7.0,12.0,31,0.00,,,0.00,15.000000,,2013-04-11 00:43:00,
2013-04-10 20:53:00,81.0,47.0,-100.00,West,265,7.0,12.0,31,0.00,,,0.00,15.000000,,2013-04-11 00:53:00,
2013-04-10 21:02:00,81.0,47.0,-100.00,West,265,7.0,12.0,31,0.00,,,0.00,15.000000,,2013-04-11 01:02:00,
2013-04-10 21:12:00,81.0,47.0,-100.00,West,265,7.0,12.0,31,0.00,,,0.00,15.000000,,2013-04-11 01:12:00,
2013-04-10 21:42:00,73.0,44.0,-100.00,ENE,65,1.0,9.0,36,0.00,,,0.00,0.000000,,2013-04-11 01:42:00,
2013-04-10 21:52:00,73.0,44.0,-100.00,ENE,65,1.0,9.0,36,0.00,,,0.00,0.000000,,2013-04-11 01:52:00,
2013-04-10 22:03:00,73.0,44.0,-100.00,ENE,65,1.0,9.0,36,0.00,,,0.00,0.000000,,2013-04-11 02:03:00,
2013-04-10 22:12:00,73.0,44.0,-100.00,ENE,65,1.0,9.0,36,0.00,,,0.00,0.000000,,2013-04-11 02:12:00,
2013-04-10 22:53:00,65.0,50.0,-100.00,East,98,0.0,3.0,58,0.00,,,0.00,0.000000,,2013-04-11 02:53:00,
2013-04-10 23:02:00,65.0,50.0,-100.00,East,98,0.0,3.0,58,0.00,,,0.00,0.000000,,2013-04-11 03:02:00,
2013-04-10 23:12:00,65.0,50.0,-100.00,East,98,0.0,3.0,58,0.00,,,0.00,0.000000,,2013-04-11 03:12:00,
2013-04-10 23:43:00,62.0,50.0,-100.00,East,91,0.0,1.0,64,0.00,,,0.00,0.000000,,2013-04-11 03:43:00,
2013-04-10 23:54:00,62.0,50.0,-100.00,East,91,0.0,1.0,64,0.00,,,0.00,0.000000,,2013-04-11 03:54:00,